sensor_id;sensor_type;location;lat;lon;timestamp;temperature;humidity
9987;DHT22;5033;46.310;11.214;2023-06-04T00:02:03;17.60;99.90
9987;DHT22;5033;46.310;11.214;2023-06-04T00:04:31;17.60;99.90
9987;DHT22;5033;46.310;11.214;2023-06-04T00:06:58;17.60;99.90
9987;DHT22;5033;46.310;11.214;2023-06-04T00:09:25;17.60;99.90
9987;DHT22;5033;46.310;11.214;2023-06-04T00:11:52;17.60;99.90
9987;DHT22;5033;46.310;11.214;2023-06-04T00:14:19;17.60;99.90
9987;DHT22;5033;46.310;11.214;2023-06-04T00:16:46;17.60;99.90
9987;DHT22;5033;46.310;11.214;2023-06-04T00:19:13;17.60;99.90
9987;DHT22;5033;46.310;11.214;2023-06-04T00:21:41;17.70;99.90
9987;DHT22;5033;46.310;11.214;2023-06-04T00:24:08;17.70;99.90
9987;DHT22;5033;46.310;11.214;2023-06-04T00:26:37;17.70;99.90
9987;DHT22;5033;46.310;11.214;2023-06-04T00:29:05;17.70;99.90
9987;DHT22;5033;46.310;11.214;2023-06-04T00:31:31;17.80;99.90
9987;DHT22;5033;46.310;11.214;2023-06-04T00:33:58;17.70;99.90
9987;DHT22;5033;46.310;11.214;2023-06-04T00:36:25;17.80;99.90
9987;DHT22;5033;46.310;11.214;2023-06-04T00:38:53;17.80;99.90
9987;DHT22;5033;46.310;11.214;2023-06-04T00:41:20;17.70;99.90
9987;DHT22;5033;46.310;11.214;2023-06-04T00:43:47;17.70;99.90
9987;DHT22;5033;46.310;11.214;2023-06-04T00:46:22;17.70;99.90
9987;DHT22;5033;46.310;11.214;2023-06-04T00:48:49;17.60;99.90
9987;DHT22;5033;46.310;11.214;2023-06-04T00:51:16;17.50;99.90
9987;DHT22;5033;46.310;11.214;2023-06-04T00:53:43;17.50;99.90
9987;DHT22;5033;46.310;11.214;2023-06-04T00:56:12;17.40;99.90
9987;DHT22;5033;46.310;11.214;2023-06-04T00:58:39;17.30;99.90
9987;DHT22;5033;46.310;11.214;2023-06-04T01:01:15;17.20;99.90
9987;DHT22;5033;46.310;11.214;2023-06-04T01:03:47;17.20;99.90
9987;DHT22;5033;46.310;11.214;2023-06-04T01:06:19;17.10;99.90
9987;DHT22;5033;46.310;11.214;2023-06-04T01:08:50;17.10;99.90
9987;DHT22;5033;46.310;11.214;2023-06-04T01:11:30;17.10;99.90
9987;DHT22;5033;46.310;11.214;2023-06-04T01:13:57;17.00;99.90
9987;DHT22;5033;46.310;11.214;2023-06-04T01:16:25;17.00;99.90
9987;DHT22;5033;46.310;11.214;2023-06-04T01:18:56;17.00;99.90
9987;DHT22;5033;46.310;11.214;2023-06-04T01:21:26;17.00;99.90
9987;DHT22;5033;46.310;11.214;2023-06-04T01:24:00;17.00;99.90
9987;DHT22;5033;46.310;11.214;2023-06-04T01:26:31;17.00;99.90
9987;DHT22;5033;46.310;11.214;2023-06-04T01:28:58;17.00;99.90
9987;DHT22;5033;46.310;11.214;2023-06-04T01:31:27;17.00;99.90
9987;DHT22;5033;46.310;11.214;2023-06-04T01:33:58;17.00;99.90
9987;DHT22;5033;46.310;11.214;2023-06-04T01:36:25;17.00;99.90
9987;DHT22;5033;46.310;11.214;2023-06-04T01:38:52;17.10;99.90
9987;DHT22;5033;46.310;11.214;2023-06-04T01:41:19;17.00;99.90
9987;DHT22;5033;46.310;11.214;2023-06-04T01:43:49;17.00;99.90
9987;DHT22;5033;46.310;11.214;2023-06-04T01:46:16;16.90;99.90
9987;DHT22;5033;46.310;11.214;2023-06-04T01:48:43;16.90;99.90
9987;DHT22;5033;46.310;11.214;2023-06-04T01:51:10;16.90;99.90
9987;DHT22;5033;46.310;11.214;2023-06-04T01:53:37;16.90;99.90
9987;DHT22;5033;46.310;11.214;2023-06-04T01:56:04;16.90;99.90
9987;DHT22;5033;46.310;11.214;2023-06-04T01:58:31;16.90;99.90
9987;DHT22;5033;46.310;11.214;2023-06-04T02:01:00;16.90;99.90
9987;DHT22;5033;46.310;11.214;2023-06-04T02:03:28;17.00;99.90
9987;DHT22;5033;46.310;11.214;2023-06-04T02:06:03;17.00;99.90
9987;DHT22;5033;46.310;11.214;2023-06-04T02:08:30;17.00;99.90
9987;DHT22;5033;46.310;11.214;2023-06-04T02:10:59;17.00;99.90
9987;DHT22;5033;46.310;11.214;2023-06-04T02:13:26;17.00;99.90
9987;DHT22;5033;46.310;11.214;2023-06-04T02:15:53;17.00;99.90
9987;DHT22;5033;46.310;11.214;2023-06-04T02:18:21;17.10;99.90
9987;DHT22;5033;46.310;11.214;2023-06-04T02:20:49;17.10;99.90
9987;DHT22;5033;46.310;11.214;2023-06-04T02:23:18;17.10;99.90
9987;DHT22;5033;46.310;11.214;2023-06-04T02:25:45;17.10;99.90
9987;DHT22;5033;46.310;11.214;2023-06-04T02:28:13;17.10;99.90
9987;DHT22;5033;46.310;11.214;2023-06-04T02:30:40;17.10;99.90
9987;DHT22;5033;46.310;11.214;2023-06-04T02:33:07;17.20;99.90
9987;DHT22;5033;46.310;11.214;2023-06-04T02:35:36;17.20;99.90
9987;DHT22;5033;46.310;11.214;2023-06-04T02:38:03;17.20;99.90
9987;DHT22;5033;46.310;11.214;2023-06-04T02:40:31;17.20;99.90
9987;DHT22;5033;46.310;11.214;2023-06-04T02:42:57;17.10;99.90
9987;DHT22;5033;46.310;11.214;2023-06-04T02:45:25;17.00;99.90
9987;DHT22;5033;46.310;11.214;2023-06-04T02:47:52;17.00;99.90
9987;DHT22;5033;46.310;11.214;2023-06-04T02:50:19;17.10;99.90
9987;DHT22;5033;46.310;11.214;2023-06-04T02:52:47;17.00;99.90
9987;DHT22;5033;46.310;11.214;2023-06-04T02:55:14;17.00;99.90
9987;DHT22;5033;46.310;11.214;2023-06-04T02:57:42;17.00;99.90
9987;DHT22;5033;46.310;11.214;2023-06-04T03:00:10;17.10;99.90
9987;DHT22;5033;46.310;11.214;2023-06-04T03:02:40;17.10;99.90
9987;DHT22;5033;46.310;11.214;2023-06-04T03:05:09;17.00;99.90
9987;DHT22;5033;46.310;11.214;2023-06-04T03:07:38;17.00;99.90
9987;DHT22;5033;46.310;11.214;2023-06-04T03:10:08;17.00;99.90
9987;DHT22;5033;46.310;11.214;2023-06-04T03:12:35;16.90;99.90
9987;DHT22;5033;46.310;11.214;2023-06-04T03:15:03;16.90;99.90
9987;DHT22;5033;46.310;11.214;2023-06-04T03:17:31;16.90;99.90
9987;DHT22;5033;46.310;11.214;2023-06-04T03:19:58;16.90;99.90
9987;DHT22;5033;46.310;11.214;2023-06-04T03:22:25;16.90;99.90
9987;DHT22;5033;46.310;11.214;2023-06-04T03:24:54;16.80;99.90
9987;DHT22;5033;46.310;11.214;2023-06-04T03:27:22;16.80;99.90
9987;DHT22;5033;46.310;11.214;2023-06-04T03:29:49;16.80;99.90
9987;DHT22;5033;46.310;11.214;2023-06-04T03:32:16;16.80;99.90
9987;DHT22;5033;46.310;11.214;2023-06-04T03:34:43;16.80;99.90
9987;DHT22;5033;46.310;11.214;2023-06-04T03:37:10;16.80;99.90
9987;DHT22;5033;46.310;11.214;2023-06-04T03:39:37;16.80;99.90
9987;DHT22;5033;46.310;11.214;2023-06-04T03:42:05;16.70;99.90
9987;DHT22;5033;46.310;11.214;2023-06-04T03:44:33;16.70;99.90
9987;DHT22;5033;46.310;11.214;2023-06-04T03:47:00;16.60;99.90
9987;DHT22;5033;46.310;11.214;2023-06-04T03:49:27;16.60;99.90
9987;DHT22;5033;46.310;11.214;2023-06-04T03:51:54;16.70;99.90
9987;DHT22;5033;46.310;11.214;2023-06-04T03:54:21;16.70;99.90
9987;DHT22;5033;46.310;11.214;2023-06-04T03:56:48;16.70;99.90
9987;DHT22;5033;46.310;11.214;2023-06-04T03:59:15;16.70;99.90
9987;DHT22;5033;46.310;11.214;2023-06-04T04:01:43;16.70;99.90
9987;DHT22;5033;46.310;11.214;2023-06-04T04:04:10;16.70;99.90
9987;DHT22;5033;46.310;11.214;2023-06-04T04:06:37;16.70;99.90
9987;DHT22;5033;46.310;11.214;2023-06-04T04:09:04;16.80;99.90
9987;DHT22;5033;46.310;11.214;2023-06-04T04:11:32;16.80;99.90
9987;DHT22;5033;46.310;11.214;2023-06-04T04:13:59;16.80;99.90
9987;DHT22;5033;46.310;11.214;2023-06-04T04:16:26;16.80;99.90
9987;DHT22;5033;46.310;11.214;2023-06-04T04:18:55;16.80;99.90
9987;DHT22;5033;46.310;11.214;2023-06-04T04:21:22;16.80;99.90
9987;DHT22;5033;46.310;11.214;2023-06-04T04:23:49;16.80;99.90
9987;DHT22;5033;46.310;11.214;2023-06-04T04:26:17;16.70;99.90
9987;DHT22;5033;46.310;11.214;2023-06-04T04:28:46;16.80;99.90
9987;DHT22;5033;46.310;11.214;2023-06-04T04:31:13;16.70;99.90
9987;DHT22;5033;46.310;11.214;2023-06-04T04:33:41;16.80;99.90
9987;DHT22;5033;46.310;11.214;2023-06-04T04:36:10;16.80;99.90
9987;DHT22;5033;46.310;11.214;2023-06-04T04:38:38;16.80;99.90
9987;DHT22;5033;46.310;11.214;2023-06-04T04:41:06;16.80;99.90
9987;DHT22;5033;46.310;11.214;2023-06-04T04:43:34;16.80;99.90
9987;DHT22;5033;46.310;11.214;2023-06-04T04:46:01;16.80;99.90
9987;DHT22;5033;46.310;11.214;2023-06-04T04:48:28;16.90;99.90
9987;DHT22;5033;46.310;11.214;2023-06-04T04:50:55;16.90;99.90
9987;DHT22;5033;46.310;11.214;2023-06-04T04:53:24;16.90;99.90
9987;DHT22;5033;46.310;11.214;2023-06-04T04:55:51;16.90;99.90
9987;DHT22;5033;46.310;11.214;2023-06-04T04:58:18;16.90;99.90
9987;DHT22;5033;46.310;11.214;2023-06-04T05:00:45;16.90;99.90
9987;DHT22;5033;46.310;11.214;2023-06-04T05:03:13;16.90;99.90
9987;DHT22;5033;46.310;11.214;2023-06-04T05:05:40;17.00;99.90
9987;DHT22;5033;46.310;11.214;2023-06-04T05:08:07;17.00;99.90
9987;DHT22;5033;46.310;11.214;2023-06-04T05:10:37;17.00;99.90
9987;DHT22;5033;46.310;11.214;2023-06-04T05:13:04;17.10;99.90
9987;DHT22;5033;46.310;11.214;2023-06-04T05:15:32;17.10;99.90
9987;DHT22;5033;46.310;11.214;2023-06-04T05:17:59;17.10;99.90
9987;DHT22;5033;46.310;11.214;2023-06-04T05:20:29;17.20;99.90
9987;DHT22;5033;46.310;11.214;2023-06-04T05:22:56;17.20;99.90
9987;DHT22;5033;46.310;11.214;2023-06-04T05:25:23;17.40;99.90
9987;DHT22;5033;46.310;11.214;2023-06-04T05:27:52;17.60;99.90
9987;DHT22;5033;46.310;11.214;2023-06-04T05:30:20;17.80;99.90
9987;DHT22;5033;46.310;11.214;2023-06-04T05:32:47;18.00;99.90
9987;DHT22;5033;46.310;11.214;2023-06-04T05:35:16;18.10;99.90
9987;DHT22;5033;46.310;11.214;2023-06-04T05:37:43;18.20;99.90
9987;DHT22;5033;46.310;11.214;2023-06-04T05:40:11;18.30;99.90
9987;DHT22;5033;46.310;11.214;2023-06-04T05:42:41;18.40;99.90
9987;DHT22;5033;46.310;11.214;2023-06-04T05:45:10;18.50;99.90
9987;DHT22;5033;46.310;11.214;2023-06-04T05:47:37;18.60;99.90
9987;DHT22;5033;46.310;11.214;2023-06-04T05:50:05;18.50;99.90
9987;DHT22;5033;46.310;11.214;2023-06-04T05:52:32;18.60;99.90
9987;DHT22;5033;46.310;11.214;2023-06-04T05:54:59;18.70;99.90
9987;DHT22;5033;46.310;11.214;2023-06-04T05:57:26;18.60;99.90
9987;DHT22;5033;46.310;11.214;2023-06-04T05:59:53;18.40;99.90
9987;DHT22;5033;46.310;11.214;2023-06-04T06:02:22;18.30;99.90
9987;DHT22;5033;46.310;11.214;2023-06-04T06:04:49;18.20;99.90
9987;DHT22;5033;46.310;11.214;2023-06-04T06:07:16;18.30;99.90
9987;DHT22;5033;46.310;11.214;2023-06-04T06:09:44;18.20;99.90
9987;DHT22;5033;46.310;11.214;2023-06-04T06:12:11;18.20;99.90
9987;DHT22;5033;46.310;11.214;2023-06-04T06:14:38;18.20;99.90
9987;DHT22;5033;46.310;11.214;2023-06-04T06:17:05;18.10;99.90
9987;DHT22;5033;46.310;11.214;2023-06-04T06:19:35;18.10;99.90
9987;DHT22;5033;46.310;11.214;2023-06-04T06:22:04;18.10;99.90
9987;DHT22;5033;46.310;11.214;2023-06-04T06:24:31;18.10;99.90
9987;DHT22;5033;46.310;11.214;2023-06-04T06:26:58;18.10;99.90
9987;DHT22;5033;46.310;11.214;2023-06-04T06:29:25;18.10;99.90
9987;DHT22;5033;46.310;11.214;2023-06-04T06:31:52;18.20;99.90
9987;DHT22;5033;46.310;11.214;2023-06-04T06:34:19;18.10;99.90
9987;DHT22;5033;46.310;11.214;2023-06-04T06:36:47;18.10;99.90
9987;DHT22;5033;46.310;11.214;2023-06-04T06:39:15;18.10;99.90
9987;DHT22;5033;46.310;11.214;2023-06-04T06:41:42;18.00;99.90
9987;DHT22;5033;46.310;11.214;2023-06-04T06:44:09;17.90;99.90
9987;DHT22;5033;46.310;11.214;2023-06-04T06:46:39;17.90;99.90
9987;DHT22;5033;46.310;11.214;2023-06-04T06:49:06;18.00;99.90
9987;DHT22;5033;46.310;11.214;2023-06-04T06:51:33;18.00;99.90
9987;DHT22;5033;46.310;11.214;2023-06-04T06:54:01;18.00;99.90
9987;DHT22;5033;46.310;11.214;2023-06-04T06:56:28;18.10;99.90
9987;DHT22;5033;46.310;11.214;2023-06-04T06:58:56;18.20;99.90
9987;DHT22;5033;46.310;11.214;2023-06-04T07:01:23;18.30;99.90
9987;DHT22;5033;46.310;11.214;2023-06-04T07:03:50;18.30;99.90
9987;DHT22;5033;46.310;11.214;2023-06-04T07:06:17;18.40;99.90
9987;DHT22;5033;46.310;11.214;2023-06-04T07:08:44;18.40;99.90
9987;DHT22;5033;46.310;11.214;2023-06-04T07:11:15;18.40;99.90
9987;DHT22;5033;46.310;11.214;2023-06-04T07:13:42;18.50;99.90
9987;DHT22;5033;46.310;11.214;2023-06-04T07:16:09;18.60;99.90
9987;DHT22;5033;46.310;11.214;2023-06-04T07:18:36;18.70;99.90
9987;DHT22;5033;46.310;11.214;2023-06-04T07:21:03;18.70;99.90
9987;DHT22;5033;46.310;11.214;2023-06-04T07:23:30;18.70;99.90
9987;DHT22;5033;46.310;11.214;2023-06-04T07:25:57;18.70;99.90
9987;DHT22;5033;46.310;11.214;2023-06-04T07:28:26;18.70;99.90
9987;DHT22;5033;46.310;11.214;2023-06-04T07:30:53;18.80;99.90
9987;DHT22;5033;46.310;11.214;2023-06-04T07:33:20;18.90;99.90
9987;DHT22;5033;46.310;11.214;2023-06-04T07:35:47;18.90;99.90
9987;DHT22;5033;46.310;11.214;2023-06-04T07:38:14;18.90;99.90
9987;DHT22;5033;46.310;11.214;2023-06-04T07:40:41;18.90;99.90
9987;DHT22;5033;46.310;11.214;2023-06-04T07:43:08;19.00;99.90
9987;DHT22;5033;46.310;11.214;2023-06-04T07:45:37;19.10;99.90
9987;DHT22;5033;46.310;11.214;2023-06-04T07:48:04;19.10;99.90
9987;DHT22;5033;46.310;11.214;2023-06-04T07:50:31;19.10;99.90
9987;DHT22;5033;46.310;11.214;2023-06-04T07:52:58;19.10;99.90
9987;DHT22;5033;46.310;11.214;2023-06-04T07:55:25;19.10;99.90
9987;DHT22;5033;46.310;11.214;2023-06-04T07:57:52;19.10;99.90
9987;DHT22;5033;46.310;11.214;2023-06-04T08:00:19;19.20;99.90
9987;DHT22;5033;46.310;11.214;2023-06-04T08:02:48;19.30;99.90
9987;DHT22;5033;46.310;11.214;2023-06-04T08:05:16;19.20;99.90
9987;DHT22;5033;46.310;11.214;2023-06-04T08:07:43;19.10;99.90
9987;DHT22;5033;46.310;11.214;2023-06-04T08:10:10;19.10;99.90
9987;DHT22;5033;46.310;11.214;2023-06-04T08:12:37;19.10;99.90
9987;DHT22;5033;46.310;11.214;2023-06-04T08:15:05;19.10;99.90
9987;DHT22;5033;46.310;11.214;2023-06-04T08:17:32;19.20;99.90
9987;DHT22;5033;46.310;11.214;2023-06-04T08:20:01;19.40;99.90
9987;DHT22;5033;46.310;11.214;2023-06-04T08:22:32;19.40;99.90
9987;DHT22;5033;46.310;11.214;2023-06-04T08:24:59;19.30;99.90
9987;DHT22;5033;46.310;11.214;2023-06-04T08:27:25;19.30;99.90
9987;DHT22;5033;46.310;11.214;2023-06-04T08:29:52;19.30;99.90
9987;DHT22;5033;46.310;11.214;2023-06-04T08:32:19;19.30;99.90
9987;DHT22;5033;46.310;11.214;2023-06-04T08:34:46;19.30;99.90
9987;DHT22;5033;46.310;11.214;2023-06-04T08:37:15;19.30;99.90
9987;DHT22;5033;46.310;11.214;2023-06-04T08:39:41;19.30;99.90
9987;DHT22;5033;46.310;11.214;2023-06-04T08:42:15;19.40;99.90
9987;DHT22;5033;46.310;11.214;2023-06-04T08:44:46;19.40;99.90
9987;DHT22;5033;46.310;11.214;2023-06-04T08:47:14;19.40;99.90
9987;DHT22;5033;46.310;11.214;2023-06-04T08:49:43;19.40;99.90
9987;DHT22;5033;46.310;11.214;2023-06-04T08:52:12;19.50;99.90
9987;DHT22;5033;46.310;11.214;2023-06-04T08:54:40;19.50;99.90
9987;DHT22;5033;46.310;11.214;2023-06-04T08:57:08;19.50;99.90
9987;DHT22;5033;46.310;11.214;2023-06-04T08:59:36;19.60;99.90
9987;DHT22;5033;46.310;11.214;2023-06-04T09:02:04;19.60;99.90
9987;DHT22;5033;46.310;11.214;2023-06-04T09:04:32;19.60;99.90
9987;DHT22;5033;46.310;11.214;2023-06-04T09:07:01;19.60;99.90
9987;DHT22;5033;46.310;11.214;2023-06-04T09:09:29;19.60;99.90
9987;DHT22;5033;46.310;11.214;2023-06-04T09:12:01;19.70;99.90
9987;DHT22;5033;46.310;11.214;2023-06-04T09:14:30;19.70;99.90
9987;DHT22;5033;46.310;11.214;2023-06-04T09:16:57;19.80;99.90
9987;DHT22;5033;46.310;11.214;2023-06-04T09:19:24;19.80;99.90
9987;DHT22;5033;46.310;11.214;2023-06-04T09:21:53;19.90;99.90
9987;DHT22;5033;46.310;11.214;2023-06-04T09:24:22;20.00;99.90
9987;DHT22;5033;46.310;11.214;2023-06-04T09:26:52;20.20;99.90
9987;DHT22;5033;46.310;11.214;2023-06-04T09:29:20;20.30;99.90
9987;DHT22;5033;46.310;11.214;2023-06-04T09:31:56;20.40;99.90
9987;DHT22;5033;46.310;11.214;2023-06-04T09:34:27;20.50;99.90
9987;DHT22;5033;46.310;11.214;2023-06-04T09:36:54;20.50;99.90
9987;DHT22;5033;46.310;11.214;2023-06-04T09:39:22;20.70;99.90
9987;DHT22;5033;46.310;11.214;2023-06-04T09:41:58;20.80;99.90
9987;DHT22;5033;46.310;11.214;2023-06-04T09:44:29;20.90;99.90
9987;DHT22;5033;46.310;11.214;2023-06-04T09:46:56;20.90;99.90
9987;DHT22;5033;46.310;11.214;2023-06-04T09:49:24;20.70;99.90
9987;DHT22;5033;46.310;11.214;2023-06-04T09:51:51;20.60;99.90
9987;DHT22;5033;46.310;11.214;2023-06-04T09:54:18;20.60;99.90
9987;DHT22;5033;46.310;11.214;2023-06-04T09:56:45;20.60;99.90
9987;DHT22;5033;46.310;11.214;2023-06-04T09:59:13;21.00;99.90
9987;DHT22;5033;46.310;11.214;2023-06-04T10:01:41;21.20;99.90
9987;DHT22;5033;46.310;11.214;2023-06-04T10:04:09;21.30;99.90
9987;DHT22;5033;46.310;11.214;2023-06-04T10:06:39;21.40;99.90
9987;DHT22;5033;46.310;11.214;2023-06-04T10:09:07;21.40;99.90
9987;DHT22;5033;46.310;11.214;2023-06-04T10:11:37;21.50;99.90
9987;DHT22;5033;46.310;11.214;2023-06-04T10:14:10;21.50;99.90
9987;DHT22;5033;46.310;11.214;2023-06-04T10:16:38;21.50;99.90
9987;DHT22;5033;46.310;11.214;2023-06-04T10:19:08;21.50;99.90
9987;DHT22;5033;46.310;11.214;2023-06-04T10:21:35;21.70;99.90
9987;DHT22;5033;46.310;11.214;2023-06-04T10:24:04;21.60;99.90
9987;DHT22;5033;46.310;11.214;2023-06-04T10:26:33;21.80;99.90
9987;DHT22;5033;46.310;11.214;2023-06-04T10:29:01;21.90;99.90
9987;DHT22;5033;46.310;11.214;2023-06-04T10:31:28;21.80;99.90
9987;DHT22;5033;46.310;11.214;2023-06-04T10:33:56;21.90;99.90
9987;DHT22;5033;46.310;11.214;2023-06-04T10:36:25;21.90;99.90
9987;DHT22;5033;46.310;11.214;2023-06-04T10:38:53;22.10;99.90
9987;DHT22;5033;46.310;11.214;2023-06-04T10:41:22;22.30;99.90
9987;DHT22;5033;46.310;11.214;2023-06-04T10:43:51;22.30;99.90
9987;DHT22;5033;46.310;11.214;2023-06-04T10:46:19;22.40;99.90
9987;DHT22;5033;46.310;11.214;2023-06-04T10:48:48;22.40;99.90
9987;DHT22;5033;46.310;11.214;2023-06-04T10:51:15;22.30;99.90
9987;DHT22;5033;46.310;11.214;2023-06-04T10:53:44;22.40;99.90
9987;DHT22;5033;46.310;11.214;2023-06-04T10:56:11;22.40;99.90
9987;DHT22;5033;46.310;11.214;2023-06-04T10:58:39;22.60;99.90
9987;DHT22;5033;46.310;11.214;2023-06-04T11:01:06;22.70;99.90
9987;DHT22;5033;46.310;11.214;2023-06-04T11:03:36;22.80;99.90
9987;DHT22;5033;46.310;11.214;2023-06-04T11:06:15;22.90;99.90
9987;DHT22;5033;46.310;11.214;2023-06-04T11:08:44;22.90;99.90
9987;DHT22;5033;46.310;11.214;2023-06-04T11:11:12;23.00;99.90
9987;DHT22;5033;46.310;11.214;2023-06-04T11:13:39;23.50;99.90
9987;DHT22;5033;46.310;11.214;2023-06-04T11:16:14;24.00;99.90
9987;DHT22;5033;46.310;11.214;2023-06-04T11:18:42;23.80;99.90
9987;DHT22;5033;46.310;11.214;2023-06-04T11:21:09;23.60;99.90
9987;DHT22;5033;46.310;11.214;2023-06-04T11:23:40;23.60;99.90
9987;DHT22;5033;46.310;11.214;2023-06-04T11:26:09;23.70;99.90
9987;DHT22;5033;46.310;11.214;2023-06-04T11:28:36;23.80;99.90
9987;DHT22;5033;46.310;11.214;2023-06-04T11:31:03;23.60;99.90
9987;DHT22;5033;46.310;11.214;2023-06-04T11:33:41;23.40;99.90
9987;DHT22;5033;46.310;11.214;2023-06-04T11:36:09;23.30;99.90
9987;DHT22;5033;46.310;11.214;2023-06-04T11:38:36;23.20;99.90
9987;DHT22;5033;46.310;11.214;2023-06-04T11:41:03;23.30;99.90
9987;DHT22;5033;46.310;11.214;2023-06-04T11:43:33;23.10;99.90
9987;DHT22;5033;46.310;11.214;2023-06-04T11:46:08;22.90;99.90
9987;DHT22;5033;46.310;11.214;2023-06-04T11:48:35;22.50;99.90
9987;DHT22;5033;46.310;11.214;2023-06-04T11:51:07;22.10;99.90
9987;DHT22;5033;46.310;11.214;2023-06-04T11:53:36;22.00;99.90
9987;DHT22;5033;46.310;11.214;2023-06-04T11:56:04;21.90;99.90
9987;DHT22;5033;46.310;11.214;2023-06-04T11:58:33;21.80;99.90
9987;DHT22;5033;46.310;11.214;2023-06-04T12:01:00;21.50;99.90
9987;DHT22;5033;46.310;11.214;2023-06-04T12:03:33;21.40;99.90
9987;DHT22;5033;46.310;11.214;2023-06-04T12:06:13;21.40;99.90
9987;DHT22;5033;46.310;11.214;2023-06-04T12:08:48;21.50;99.90
9987;DHT22;5033;46.310;11.214;2023-06-04T12:11:29;21.40;99.90
9987;DHT22;5033;46.310;11.214;2023-06-04T12:13:59;21.30;99.90
9987;DHT22;5033;46.310;11.214;2023-06-04T12:16:26;21.20;99.90
9987;DHT22;5033;46.310;11.214;2023-06-04T12:19:05;21.10;99.90
9987;DHT22;5033;46.310;11.214;2023-06-04T12:21:33;21.20;99.90
9987;DHT22;5033;46.310;11.214;2023-06-04T12:24:06;21.30;99.90
9987;DHT22;5033;46.310;11.214;2023-06-04T12:26:34;21.30;99.90
9987;DHT22;5033;46.310;11.214;2023-06-04T12:29:09;21.30;99.90
9987;DHT22;5033;46.310;11.214;2023-06-04T12:31:37;21.20;99.90
9987;DHT22;5033;46.310;11.214;2023-06-04T12:34:04;21.10;99.90
9987;DHT22;5033;46.310;11.214;2023-06-04T12:36:31;21.00;99.90
9987;DHT22;5033;46.310;11.214;2023-06-04T12:39:01;21.00;99.90
9987;DHT22;5033;46.310;11.214;2023-06-04T12:41:29;21.00;99.90
9987;DHT22;5033;46.310;11.214;2023-06-04T12:43:56;21.00;99.90
9987;DHT22;5033;46.310;11.214;2023-06-04T12:46:25;21.00;99.90
9987;DHT22;5033;46.310;11.214;2023-06-04T12:48:53;21.00;99.90
9987;DHT22;5033;46.310;11.214;2023-06-04T12:51:21;21.00;99.90
9987;DHT22;5033;46.310;11.214;2023-06-04T12:53:48;20.90;99.90
9987;DHT22;5033;46.310;11.214;2023-06-04T12:56:15;20.90;99.90
9987;DHT22;5033;46.310;11.214;2023-06-04T12:58:42;20.90;99.90
9987;DHT22;5033;46.310;11.214;2023-06-04T13:01:09;20.90;99.90
9987;DHT22;5033;46.310;11.214;2023-06-04T13:03:40;20.90;99.90
9987;DHT22;5033;46.310;11.214;2023-06-04T13:06:07;20.80;99.90
9987;DHT22;5033;46.310;11.214;2023-06-04T13:08:34;20.70;99.90
9987;DHT22;5033;46.310;11.214;2023-06-04T13:11:01;20.60;99.90
9987;DHT22;5033;46.310;11.214;2023-06-04T13:13:28;20.40;99.90
9987;DHT22;5033;46.310;11.214;2023-06-04T13:18:21;20.10;99.90
9987;DHT22;5033;46.310;11.214;2023-06-04T13:20:50;19.90;99.90
9987;DHT22;5033;46.310;11.214;2023-06-04T13:23:17;19.60;99.90
9987;DHT22;5033;46.310;11.214;2023-06-04T13:25:44;19.30;99.90
9987;DHT22;5033;46.310;11.214;2023-06-04T13:28:11;19.10;99.90
9987;DHT22;5033;46.310;11.214;2023-06-04T13:30:38;18.90;99.90
9987;DHT22;5033;46.310;11.214;2023-06-04T13:33:06;18.80;99.90
9987;DHT22;5033;46.310;11.214;2023-06-04T13:35:33;18.80;99.90
9987;DHT22;5033;46.310;11.214;2023-06-04T13:38:02;19.00;99.90
9987;DHT22;5033;46.310;11.214;2023-06-04T13:40:29;19.30;99.90
9987;DHT22;5033;46.310;11.214;2023-06-04T13:42:56;19.50;99.90
9987;DHT22;5033;46.310;11.214;2023-06-04T13:45:23;19.70;99.90
9987;DHT22;5033;46.310;11.214;2023-06-04T13:47:52;19.90;99.90
9987;DHT22;5033;46.310;11.214;2023-06-04T13:50:19;20.10;99.90
9987;DHT22;5033;46.310;11.214;2023-06-04T13:52:46;20.30;99.90
9987;DHT22;5033;46.310;11.214;2023-06-04T13:55:15;20.50;99.90
9987;DHT22;5033;46.310;11.214;2023-06-04T13:57:43;20.50;99.90
9987;DHT22;5033;46.310;11.214;2023-06-04T14:00:11;20.20;99.90
9987;DHT22;5033;46.310;11.214;2023-06-04T14:02:39;20.00;99.90
9987;DHT22;5033;46.310;11.214;2023-06-04T14:05:07;20.10;99.90
9987;DHT22;5033;46.310;11.214;2023-06-04T14:07:34;20.20;99.90
9987;DHT22;5033;46.310;11.214;2023-06-04T14:10:01;20.40;99.90
9987;DHT22;5033;46.310;11.214;2023-06-04T14:12:30;20.60;99.90
9987;DHT22;5033;46.310;11.214;2023-06-04T14:14:57;20.90;99.90
9987;DHT22;5033;46.310;11.214;2023-06-04T14:17:24;21.20;99.90
9987;DHT22;5033;46.310;11.214;2023-06-04T14:19:51;21.50;99.90
9987;DHT22;5033;46.310;11.214;2023-06-04T14:22:18;21.50;99.90
9987;DHT22;5033;46.310;11.214;2023-06-04T14:24:46;21.50;99.90
9987;DHT22;5033;46.310;11.214;2023-06-04T14:27:13;21.60;99.90
9987;DHT22;5033;46.310;11.214;2023-06-04T14:29:42;21.80;99.90
9987;DHT22;5033;46.310;11.214;2023-06-04T14:32:09;21.70;99.90
9987;DHT22;5033;46.310;11.214;2023-06-04T14:34:36;21.60;99.90
9987;DHT22;5033;46.310;11.214;2023-06-04T14:37:03;21.60;99.90
9987;DHT22;5033;46.310;11.214;2023-06-04T14:39:31;21.30;99.90
9987;DHT22;5033;46.310;11.214;2023-06-04T14:41:58;21.10;99.90
9987;DHT22;5033;46.310;11.214;2023-06-04T14:44:25;21.00;99.90
9987;DHT22;5033;46.310;11.214;2023-06-04T14:46:53;21.10;99.90
9987;DHT22;5033;46.310;11.214;2023-06-04T14:49:20;21.10;99.90
9987;DHT22;5033;46.310;11.214;2023-06-04T14:51:47;21.00;99.90
9987;DHT22;5033;46.310;11.214;2023-06-04T14:54:14;20.80;99.90
9987;DHT22;5033;46.310;11.214;2023-06-04T14:56:42;20.90;99.90
9987;DHT22;5033;46.310;11.214;2023-06-04T14:59:10;21.10;99.90
9987;DHT22;5033;46.310;11.214;2023-06-04T15:01:38;21.30;99.90
9987;DHT22;5033;46.310;11.214;2023-06-04T15:04:07;21.40;99.90
9987;DHT22;5033;46.310;11.214;2023-06-04T15:06:35;21.10;99.90
9987;DHT22;5033;46.310;11.214;2023-06-04T15:09:03;20.90;99.90
9987;DHT22;5033;46.310;11.214;2023-06-04T15:11:30;20.60;99.90
9987;DHT22;5033;46.310;11.214;2023-06-04T15:13:57;20.30;99.90
9987;DHT22;5033;46.310;11.214;2023-06-04T15:16:24;20.10;99.90
9987;DHT22;5033;46.310;11.214;2023-06-04T15:18:51;20.10;99.90
9987;DHT22;5033;46.310;11.214;2023-06-04T15:21:21;20.00;99.90
9987;DHT22;5033;46.310;11.214;2023-06-04T15:23:49;20.00;99.90
9987;DHT22;5033;46.310;11.214;2023-06-04T15:26:17;20.10;99.90
9987;DHT22;5033;46.310;11.214;2023-06-04T15:28:44;20.10;99.90
9987;DHT22;5033;46.310;11.214;2023-06-04T15:31:12;20.10;99.90
9987;DHT22;5033;46.310;11.214;2023-06-04T15:33:39;20.10;99.90
9987;DHT22;5033;46.310;11.214;2023-06-04T15:36:06;20.00;99.90
9987;DHT22;5033;46.310;11.214;2023-06-04T15:38:35;20.00;99.90
9987;DHT22;5033;46.310;11.214;2023-06-04T15:41:02;20.10;99.90
9987;DHT22;5033;46.310;11.214;2023-06-04T15:43:29;20.20;99.90
9987;DHT22;5033;46.310;11.214;2023-06-04T15:45:56;20.20;99.90
9987;DHT22;5033;46.310;11.214;2023-06-04T15:48:23;20.20;99.90
9987;DHT22;5033;46.310;11.214;2023-06-04T15:50:53;20.20;99.90
9987;DHT22;5033;46.310;11.214;2023-06-04T15:53:20;20.20;99.90